sensor_id;sensor_type;location;lat;lon;timestamp;temperature;humidity
7502;DHT22;3792;47.740;7.606;2022-12-11T00:00:00;-2.50;99.90
7502;DHT22;3792;47.740;7.606;2022-12-11T00:02:28;-2.50;99.90
7502;DHT22;3792;47.740;7.606;2022-12-11T00:04:55;-2.40;99.90
7502;DHT22;3792;47.740;7.606;2022-12-11T00:07:22;-2.50;99.90
7502;DHT22;3792;47.740;7.606;2022-12-11T00:09:49;-2.40;99.90
7502;DHT22;3792;47.740;7.606;2022-12-11T00:12:16;-2.40;99.90
7502;DHT22;3792;47.740;7.606;2022-12-11T00:14:44;-2.40;99.90
7502;DHT22;3792;47.740;7.606;2022-12-11T00:17:12;-2.40;99.90
7502;DHT22;3792;47.740;7.606;2022-12-11T00:19:39;-2.40;99.90
7502;DHT22;3792;47.740;7.606;2022-12-11T00:22:06;-2.50;99.90
7502;DHT22;3792;47.740;7.606;2022-12-11T00:24:33;-2.40;99.90
7502;DHT22;3792;47.740;7.606;2022-12-11T00:27:00;-2.50;99.90
7502;DHT22;3792;47.740;7.606;2022-12-11T00:29:27;-2.50;99.90
7502;DHT22;3792;47.740;7.606;2022-12-11T00:31:56;-2.50;99.90
7502;DHT22;3792;47.740;7.606;2022-12-11T00:34:23;-2.60;99.90
7502;DHT22;3792;47.740;7.606;2022-12-11T00:36:50;-2.70;99.90
7502;DHT22;3792;47.740;7.606;2022-12-11T00:39:17;-2.60;99.90
7502;DHT22;3792;47.740;7.606;2022-12-11T00:41:44;-2.50;99.90
7502;DHT22;3792;47.740;7.606;2022-12-11T00:44:11;-2.50;99.90
7502;DHT22;3792;47.740;7.606;2022-12-11T00:46:39;-2.40;99.90
7502;DHT22;3792;47.740;7.606;2022-12-11T00:49:07;-2.50;99.90
7502;DHT22;3792;47.740;7.606;2022-12-11T00:51:34;-2.50;99.90
7502;DHT22;3792;47.740;7.606;2022-12-11T00:54:02;-2.60;99.90
7502;DHT22;3792;47.740;7.606;2022-12-11T00:56:29;-2.60;99.90
7502;DHT22;3792;47.740;7.606;2022-12-11T00:58:56;-2.70;99.90
7502;DHT22;3792;47.740;7.606;2022-12-11T01:01:24;-2.70;99.90
7502;DHT22;3792;47.740;7.606;2022-12-11T01:03:51;-2.70;99.90
7502;DHT22;3792;47.740;7.606;2022-12-11T01:06:22;-2.60;99.90
7502;DHT22;3792;47.740;7.606;2022-12-11T01:08:50;-2.60;99.90
7502;DHT22;3792;47.740;7.606;2022-12-11T01:11:39;-2.60;99.90
7502;DHT22;3792;47.740;7.606;2022-12-11T01:14:06;-2.60;99.90
7502;DHT22;3792;47.740;7.606;2022-12-11T01:16:34;-2.60;99.90
7502;DHT22;3792;47.740;7.606;2022-12-11T01:19:02;-2.60;99.90
7502;DHT22;3792;47.740;7.606;2022-12-11T01:21:31;-2.70;99.90
7502;DHT22;3792;47.740;7.606;2022-12-11T01:23:58;-2.70;99.90
7502;DHT22;3792;47.740;7.606;2022-12-11T01:26:25;-2.80;99.90
7502;DHT22;3792;47.740;7.606;2022-12-11T01:28:52;-2.70;99.90
7502;DHT22;3792;47.740;7.606;2022-12-11T01:31:19;-2.70;99.90
7502;DHT22;3792;47.740;7.606;2022-12-11T01:33:47;-2.80;99.90
7502;DHT22;3792;47.740;7.606;2022-12-11T01:36:17;-2.80;99.90
7502;DHT22;3792;47.740;7.606;2022-12-11T01:38:47;-2.70;99.90
7502;DHT22;3792;47.740;7.606;2022-12-11T01:41:14;-2.60;99.90
7502;DHT22;3792;47.740;7.606;2022-12-11T01:44:00;-2.60;99.90
7502;DHT22;3792;47.740;7.606;2022-12-11T01:46:28;-2.70;99.90
7502;DHT22;3792;47.740;7.606;2022-12-11T01:48:56;-2.70;99.90
7502;DHT22;3792;47.740;7.606;2022-12-11T01:51:23;-2.90;99.90
7502;DHT22;3792;47.740;7.606;2022-12-11T01:53:54;-2.80;99.90
7502;DHT22;3792;47.740;7.606;2022-12-11T01:56:23;-2.70;99.90
7502;DHT22;3792;47.740;7.606;2022-12-11T01:58:57;-2.60;99.90
7502;DHT22;3792;47.740;7.606;2022-12-11T02:01:30;-2.50;99.90
7502;DHT22;3792;47.740;7.606;2022-12-11T02:03:59;-2.40;99.90
7502;DHT22;3792;47.740;7.606;2022-12-11T02:06:30;-2.40;99.90
7502;DHT22;3792;47.740;7.606;2022-12-11T02:08:59;-2.50;99.90
7502;DHT22;3792;47.740;7.606;2022-12-11T02:11:33;-2.70;99.90
7502;DHT22;3792;47.740;7.606;2022-12-11T02:14:05;-2.70;99.90
7502;DHT22;3792;47.740;7.606;2022-12-11T02:16:39;-2.60;99.90
7502;DHT22;3792;47.740;7.606;2022-12-11T02:19:17;-2.80;99.90
7502;DHT22;3792;47.740;7.606;2022-12-11T02:21:48;-2.90;99.90
7502;DHT22;3792;47.740;7.606;2022-12-11T02:24:31;-2.90;99.90
7502;DHT22;3792;47.740;7.606;2022-12-11T02:27:22;-2.70;99.90
7502;DHT22;3792;47.740;7.606;2022-12-11T02:30:00;-2.50;99.90
7502;DHT22;3792;47.740;7.606;2022-12-11T02:32:33;-2.40;99.90
7502;DHT22;3792;47.740;7.606;2022-12-11T02:35:07;-2.30;99.90
7502;DHT22;3792;47.740;7.606;2022-12-11T02:37:37;-2.20;99.90
7502;DHT22;3792;47.740;7.606;2022-12-11T02:40:09;-2.20;99.90
7502;DHT22;3792;47.740;7.606;2022-12-11T02:42:39;-2.10;99.90
7502;DHT22;3792;47.740;7.606;2022-12-11T02:45:10;-2.10;99.90
7502;DHT22;3792;47.740;7.606;2022-12-11T02:47:38;-2.00;99.90
7502;DHT22;3792;47.740;7.606;2022-12-11T02:50:09;-2.10;99.90
7502;DHT22;3792;47.740;7.606;2022-12-11T02:52:38;-2.10;99.90
7502;DHT22;3792;47.740;7.606;2022-12-11T02:55:09;-2.00;99.90
7502;DHT22;3792;47.740;7.606;2022-12-11T02:57:40;-2.00;99.90
7502;DHT22;3792;47.740;7.606;2022-12-11T03:00:11;-2.00;99.90
7502;DHT22;3792;47.740;7.606;2022-12-11T03:02:39;-2.00;99.90
7502;DHT22;3792;47.740;7.606;2022-12-11T03:05:08;-2.00;99.90
7502;DHT22;3792;47.740;7.606;2022-12-11T03:07:39;-2.10;99.90
7502;DHT22;3792;47.740;7.606;2022-12-11T03:10:09;-2.00;99.90
7502;DHT22;3792;47.740;7.606;2022-12-11T03:12:40;-1.90;99.90
7502;DHT22;3792;47.740;7.606;2022-12-11T03:15:12;-2.10;99.90
7502;DHT22;3792;47.740;7.606;2022-12-11T03:17:46;-2.30;99.90
7502;DHT22;3792;47.740;7.606;2022-12-11T03:20:22;-2.30;99.90
7502;DHT22;3792;47.740;7.606;2022-12-11T03:22:59;-2.30;99.90
7502;DHT22;3792;47.740;7.606;2022-12-11T03:25:33;-2.30;99.90
7502;DHT22;3792;47.740;7.606;2022-12-11T03:28:06;-2.20;99.90
7502;DHT22;3792;47.740;7.606;2022-12-11T03:30:38;-2.20;99.90
7502;DHT22;3792;47.740;7.606;2022-12-11T03:33:10;-2.20;99.90
7502;DHT22;3792;47.740;7.606;2022-12-11T03:35:41;-2.20;99.90
7502;DHT22;3792;47.740;7.606;2022-12-11T03:38:12;-2.30;99.90
7502;DHT22;3792;47.740;7.606;2022-12-11T03:40:42;-2.30;99.90
7502;DHT22;3792;47.740;7.606;2022-12-11T03:43:12;-2.40;99.90
7502;DHT22;3792;47.740;7.606;2022-12-11T03:45:42;-2.40;99.90
7502;DHT22;3792;47.740;7.606;2022-12-11T03:48:11;-2.40;99.90
7502;DHT22;3792;47.740;7.606;2022-12-11T03:50:41;-2.40;99.90
7502;DHT22;3792;47.740;7.606;2022-12-11T03:53:09;-2.50;99.90
7502;DHT22;3792;47.740;7.606;2022-12-11T03:55:37;-2.60;99.90
7502;DHT22;3792;47.740;7.606;2022-12-11T03:58:05;-2.60;99.90
7502;DHT22;3792;47.740;7.606;2022-12-11T04:00:32;-2.80;99.90
7502;DHT22;3792;47.740;7.606;2022-12-11T04:03:01;-2.80;99.90
7502;DHT22;3792;47.740;7.606;2022-12-11T04:05:41;-2.90;99.90
7502;DHT22;3792;47.740;7.606;2022-12-11T04:08:09;-2.80;99.90
7502;DHT22;3792;47.740;7.606;2022-12-11T04:10:37;-2.80;99.90
7502;DHT22;3792;47.740;7.606;2022-12-11T04:13:04;-2.80;99.90
7502;DHT22;3792;47.740;7.606;2022-12-11T04:15:31;-2.70;99.90
7502;DHT22;3792;47.740;7.606;2022-12-11T04:17:57;-2.80;99.90
7502;DHT22;3792;47.740;7.606;2022-12-11T04:20:43;-2.80;99.90
7502;DHT22;3792;47.740;7.606;2022-12-11T04:23:27;-2.70;99.90
7502;DHT22;3792;47.740;7.606;2022-12-11T04:26:14;-2.70;99.90
7502;DHT22;3792;47.740;7.606;2022-12-11T04:28:42;-2.70;99.90
7502;DHT22;3792;47.740;7.606;2022-12-11T04:31:11;-2.60;99.90
7502;DHT22;3792;47.740;7.606;2022-12-11T04:33:39;-2.60;99.90
7502;DHT22;3792;47.740;7.606;2022-12-11T04:36:09;-2.60;99.90
7502;DHT22;3792;47.740;7.606;2022-12-11T04:38:36;-2.70;99.90
7502;DHT22;3792;47.740;7.606;2022-12-11T04:41:06;-2.70;99.90
7502;DHT22;3792;47.740;7.606;2022-12-11T04:43:33;-2.70;99.90
7502;DHT22;3792;47.740;7.606;2022-12-11T04:46:02;-2.70;99.90
7502;DHT22;3792;47.740;7.606;2022-12-11T04:48:29;-2.80;99.90
7502;DHT22;3792;47.740;7.606;2022-12-11T04:50:57;-2.80;99.90
7502;DHT22;3792;47.740;7.606;2022-12-11T04:53:25;-2.80;99.90
7502;DHT22;3792;47.740;7.606;2022-12-11T04:55:53;-2.80;99.90
7502;DHT22;3792;47.740;7.606;2022-12-11T04:58:20;-2.80;99.90
7502;DHT22;3792;47.740;7.606;2022-12-11T05:00:47;-2.80;99.90
7502;DHT22;3792;47.740;7.606;2022-12-11T05:03:14;-2.80;99.90
7502;DHT22;3792;47.740;7.606;2022-12-11T05:05:46;-2.80;99.90
7502;DHT22;3792;47.740;7.606;2022-12-11T05:08:13;-2.80;99.90
7502;DHT22;3792;47.740;7.606;2022-12-11T05:10:42;-2.80;99.90
7502;DHT22;3792;47.740;7.606;2022-12-11T05:13:09;-2.80;99.90
7502;DHT22;3792;47.740;7.606;2022-12-11T05:15:38;-2.80;99.90
7502;DHT22;3792;47.740;7.606;2022-12-11T05:18:05;-2.80;99.90
7502;DHT22;3792;47.740;7.606;2022-12-11T05:20:32;-2.70;99.90
7502;DHT22;3792;47.740;7.606;2022-12-11T05:22:59;-2.70;99.90
7502;DHT22;3792;47.740;7.606;2022-12-11T05:25:26;-2.60;99.90
7502;DHT22;3792;47.740;7.606;2022-12-11T05:27:54;-2.50;99.90
7502;DHT22;3792;47.740;7.606;2022-12-11T05:30:22;-2.40;99.90
7502;DHT22;3792;47.740;7.606;2022-12-11T05:32:49;-2.40;99.90
7502;DHT22;3792;47.740;7.606;2022-12-11T05:35:16;-2.40;99.90
7502;DHT22;3792;47.740;7.606;2022-12-11T05:37:43;-2.40;99.90
7502;DHT22;3792;47.740;7.606;2022-12-11T05:40:10;-2.40;99.90
7502;DHT22;3792;47.740;7.606;2022-12-11T05:42:38;-2.30;99.90
7502;DHT22;3792;47.740;7.606;2022-12-11T05:45:07;-2.30;99.90
7502;DHT22;3792;47.740;7.606;2022-12-11T05:47:35;-2.20;99.90
7502;DHT22;3792;47.740;7.606;2022-12-11T05:50:02;-2.20;99.90
7502;DHT22;3792;47.740;7.606;2022-12-11T05:52:31;-2.20;99.90
7502;DHT22;3792;47.740;7.606;2022-12-11T05:54:58;-2.20;99.90
7502;DHT22;3792;47.740;7.606;2022-12-11T05:57:25;-2.30;99.90
7502;DHT22;3792;47.740;7.606;2022-12-11T05:59:52;-2.30;99.90
7502;DHT22;3792;47.740;7.606;2022-12-11T06:02:20;-2.30;99.90
7502;DHT22;3792;47.740;7.606;2022-12-11T06:04:48;-2.30;99.90
7502;DHT22;3792;47.740;7.606;2022-12-11T06:07:15;-2.20;99.90
7502;DHT22;3792;47.740;7.606;2022-12-11T06:09:42;-2.20;99.90
7502;DHT22;3792;47.740;7.606;2022-12-11T06:12:09;-2.20;99.90
7502;DHT22;3792;47.740;7.606;2022-12-11T06:14:36;-2.20;99.90
7502;DHT22;3792;47.740;7.606;2022-12-11T06:17:03;-2.10;99.90
7502;DHT22;3792;47.740;7.606;2022-12-11T06:19:32;-2.20;99.90
7502;DHT22;3792;47.740;7.606;2022-12-11T06:21:59;-2.10;99.90
7502;DHT22;3792;47.740;7.606;2022-12-11T06:24:26;-2.10;99.90
7502;DHT22;3792;47.740;7.606;2022-12-11T06:26:53;-2.10;99.90
7502;DHT22;3792;47.740;7.606;2022-12-11T06:29:20;-2.00;99.90
7502;DHT22;3792;47.740;7.606;2022-12-11T06:31:47;-2.00;99.90
7502;DHT22;3792;47.740;7.606;2022-12-11T06:34:14;-2.00;99.90
7502;DHT22;3792;47.740;7.606;2022-12-11T06:36:43;-2.10;99.90
7502;DHT22;3792;47.740;7.606;2022-12-11T06:39:10;-2.10;99.90
7502;DHT22;3792;47.740;7.606;2022-12-11T06:41:37;-2.20;99.90
7502;DHT22;3792;47.740;7.606;2022-12-11T06:44:04;-2.20;99.90
7502;DHT22;3792;47.740;7.606;2022-12-11T06:46:31;-2.20;99.90
7502;DHT22;3792;47.740;7.606;2022-12-11T06:48:58;-2.20;99.90
7502;DHT22;3792;47.740;7.606;2022-12-11T06:51:25;-2.20;99.90
7502;DHT22;3792;47.740;7.606;2022-12-11T06:53:55;-2.20;99.90
7502;DHT22;3792;47.740;7.606;2022-12-11T06:56:23;-2.20;99.90
7502;DHT22;3792;47.740;7.606;2022-12-11T06:58:50;-2.20;99.90
7502;DHT22;3792;47.740;7.606;2022-12-11T07:01:20;-2.20;99.90
7502;DHT22;3792;47.740;7.606;2022-12-11T07:03:48;-2.20;99.90
7502;DHT22;3792;47.740;7.606;2022-12-11T07:06:16;-2.10;99.90
7502;DHT22;3792;47.740;7.606;2022-12-11T07:08:43;-2.10;99.90
7502;DHT22;3792;47.740;7.606;2022-12-11T07:11:15;-2.10;99.90
7502;DHT22;3792;47.740;7.606;2022-12-11T07:13:46;-2.10;99.90
7502;DHT22;3792;47.740;7.606;2022-12-11T07:16:14;-2.00;99.90
7502;DHT22;3792;47.740;7.606;2022-12-11T07:18:46;-2.00;99.90
7502;DHT22;3792;47.740;7.606;2022-12-11T07:21:13;-2.00;99.90
7502;DHT22;3792;47.740;7.606;2022-12-11T07:23:41;-2.20;99.90
7502;DHT22;3792;47.740;7.606;2022-12-11T07:26:12;-2.10;99.90
7502;DHT22;3792;47.740;7.606;2022-12-11T07:28:40;-2.10;99.90
7502;DHT22;3792;47.740;7.606;2022-12-11T07:31:09;-2.10;99.90
7502;DHT22;3792;47.740;7.606;2022-12-11T07:33:38;-2.00;99.90
7502;DHT22;3792;47.740;7.606;2022-12-11T07:36:07;-2.10;99.90
7502;DHT22;3792;47.740;7.606;2022-12-11T07:38:35;-2.10;99.90
7502;DHT22;3792;47.740;7.606;2022-12-11T07:41:04;-2.10;99.90
7502;DHT22;3792;47.740;7.606;2022-12-11T07:43:34;-2.10;99.90
7502;DHT22;3792;47.740;7.606;2022-12-11T07:46:02;-2.10;99.90
7502;DHT22;3792;47.740;7.606;2022-12-11T07:48:30;-2.00;99.90
7502;DHT22;3792;47.740;7.606;2022-12-11T07:51:07;-2.00;99.90
7502;DHT22;3792;47.740;7.606;2022-12-11T07:53:35;-2.10;99.90
7502;DHT22;3792;47.740;7.606;2022-12-11T07:56:02;-2.10;99.90
7502;DHT22;3792;47.740;7.606;2022-12-11T07:58:30;-2.00;99.90
7502;DHT22;3792;47.740;7.606;2022-12-11T08:00:59;-2.00;99.90
7502;DHT22;3792;47.740;7.606;2022-12-11T08:03:26;-2.10;99.90
7502;DHT22;3792;47.740;7.606;2022-12-11T08:05:53;-2.10;99.90
7502;DHT22;3792;47.740;7.606;2022-12-11T08:08:21;-2.10;99.90
7502;DHT22;3792;47.740;7.606;2022-12-11T08:10:48;-2.10;99.90
7502;DHT22;3792;47.740;7.606;2022-12-11T08:13:19;-2.00;99.90
7502;DHT22;3792;47.740;7.606;2022-12-11T08:15:46;-2.00;99.90
7502;DHT22;3792;47.740;7.606;2022-12-11T08:18:15;-2.00;99.90
7502;DHT22;3792;47.740;7.606;2022-12-11T08:20:42;-2.10;99.90
7502;DHT22;3792;47.740;7.606;2022-12-11T08:23:09;-2.00;99.90
7502;DHT22;3792;47.740;7.606;2022-12-11T08:25:36;-2.00;99.90
7502;DHT22;3792;47.740;7.606;2022-12-11T08:28:03;-2.00;99.90
7502;DHT22;3792;47.740;7.606;2022-12-11T08:30:31;-2.00;99.90
7502;DHT22;3792;47.740;7.606;2022-12-11T08:32:58;-2.10;99.90
7502;DHT22;3792;47.740;7.606;2022-12-11T08:35:26;-2.20;99.90
7502;DHT22;3792;47.740;7.606;2022-12-11T08:37:54;-2.20;99.90
7502;DHT22;3792;47.740;7.606;2022-12-11T08:40:21;-2.20;99.90
7502;DHT22;3792;47.740;7.606;2022-12-11T08:42:48;-2.10;99.90
7502;DHT22;3792;47.740;7.606;2022-12-11T08:45:16;-2.00;99.90
7502;DHT22;3792;47.740;7.606;2022-12-11T08:47:43;-1.90;99.90
7502;DHT22;3792;47.740;7.606;2022-12-11T08:50:10;-1.80;99.90
7502;DHT22;3792;47.740;7.606;2022-12-11T08:52:39;-1.80;99.90
7502;DHT22;3792;47.740;7.606;2022-12-11T08:55:07;-1.80;99.90
7502;DHT22;3792;47.740;7.606;2022-12-11T08:57:34;-1.80;99.90
7502;DHT22;3792;47.740;7.606;2022-12-11T09:00:01;-1.70;99.90
7502;DHT22;3792;47.740;7.606;2022-12-11T09:02:28;-1.70;99.90
7502;DHT22;3792;47.740;7.606;2022-12-11T09:04:55;-1.60;99.90
7502;DHT22;3792;47.740;7.606;2022-12-11T09:07:23;-1.70;99.90
7502;DHT22;3792;47.740;7.606;2022-12-11T09:09:53;-1.80;99.90
7502;DHT22;3792;47.740;7.606;2022-12-11T09:12:20;-1.70;99.90
7502;DHT22;3792;47.740;7.606;2022-12-11T09:14:47;-1.60;99.90
7502;DHT22;3792;47.740;7.606;2022-12-11T09:17:14;-1.80;99.90
7502;DHT22;3792;47.740;7.606;2022-12-11T09:19:42;-1.80;99.90
7502;DHT22;3792;47.740;7.606;2022-12-11T09:22:09;-1.70;99.90
7502;DHT22;3792;47.740;7.606;2022-12-11T09:24:37;-1.70;99.90
7502;DHT22;3792;47.740;7.606;2022-12-11T09:27:05;-1.70;99.90
7502;DHT22;3792;47.740;7.606;2022-12-11T09:29:32;-1.70;99.90
7502;DHT22;3792;47.740;7.606;2022-12-11T09:32:00;-1.60;99.90
7502;DHT22;3792;47.740;7.606;2022-12-11T09:34:27;-1.40;99.90
7502;DHT22;3792;47.740;7.606;2022-12-11T09:36:54;-1.20;99.90
7502;DHT22;3792;47.740;7.606;2022-12-11T09:39:21;-0.70;99.90
7502;DHT22;3792;47.740;7.606;2022-12-11T09:41:52;-0.30;99.90
7502;DHT22;3792;47.740;7.606;2022-12-11T09:44:42;0.00;99.90
7502;DHT22;3792;47.740;7.606;2022-12-11T09:47:18;0.10;99.90
7502;DHT22;3792;47.740;7.606;2022-12-11T09:49:50;-0.10;99.90
7502;DHT22;3792;47.740;7.606;2022-12-11T09:52:22;-0.20;99.90
7502;DHT22;3792;47.740;7.606;2022-12-11T09:54:56;0.00;99.90
7502;DHT22;3792;47.740;7.606;2022-12-11T09:57:34;0.50;99.90
7502;DHT22;3792;47.740;7.606;2022-12-11T10:00:25;1.40;99.90
7502;DHT22;3792;47.740;7.606;2022-12-11T10:03:10;2.50;99.90
7502;DHT22;3792;47.740;7.606;2022-12-11T10:05:49;3.40;99.90
7502;DHT22;3792;47.740;7.606;2022-12-11T10:08:22;4.00;99.90
7502;DHT22;3792;47.740;7.606;2022-12-11T10:10:58;4.40;99.90
7502;DHT22;3792;47.740;7.606;2022-12-11T10:13:36;5.00;99.90
7502;DHT22;3792;47.740;7.606;2022-12-11T10:16:11;5.60;99.90
7502;DHT22;3792;47.740;7.606;2022-12-11T10:18:40;6.30;99.90
7502;DHT22;3792;47.740;7.606;2022-12-11T10:21:10;6.30;99.90
7502;DHT22;3792;47.740;7.606;2022-12-11T10:23:43;6.60;99.70
7502;DHT22;3792;47.740;7.606;2022-12-11T10:26:15;6.90;99.60
7502;DHT22;3792;47.740;7.606;2022-12-11T10:28:43;6.90;97.60
7502;DHT22;3792;47.740;7.606;2022-12-11T10:31:16;6.70;96.60
7502;DHT22;3792;47.740;7.606;2022-12-11T10:33:53;5.80;97.50
7502;DHT22;3792;47.740;7.606;2022-12-11T10:36:27;6.00;97.80
7502;DHT22;3792;47.740;7.606;2022-12-11T10:38:55;5.20;97.00
7502;DHT22;3792;47.740;7.606;2022-12-11T10:41:35;4.70;98.20
7502;DHT22;3792;47.740;7.606;2022-12-11T10:44:14;4.90;98.80
7502;DHT22;3792;47.740;7.606;2022-12-11T10:46:43;4.90;98.90
7502;DHT22;3792;47.740;7.606;2022-12-11T10:49:21;4.80;98.70
7502;DHT22;3792;47.740;7.606;2022-12-11T10:51:49;5.40;99.60
7502;DHT22;3792;47.740;7.606;2022-12-11T10:54:30;5.70;97.70
7502;DHT22;3792;47.740;7.606;2022-12-11T10:56:58;6.10;97.90
7502;DHT22;3792;47.740;7.606;2022-12-11T10:59:32;6.30;97.20
7502;DHT22;3792;47.740;7.606;2022-12-11T11:02:03;6.70;97.00
7502;DHT22;3792;47.740;7.606;2022-12-11T11:04:34;6.70;96.10
7502;DHT22;3792;47.740;7.606;2022-12-11T11:07:09;6.90;96.60
7502;DHT22;3792;47.740;7.606;2022-12-11T11:09:37;7.50;99.10
7502;DHT22;3792;47.740;7.606;2022-12-11T11:12:18;7.70;98.90
7502;DHT22;3792;47.740;7.606;2022-12-11T11:14:45;8.20;98.60
7502;DHT22;3792;47.740;7.606;2022-12-11T11:17:16;9.10;99.80
7502;DHT22;3792;47.740;7.606;2022-12-11T11:19:46;9.70;97.80
7502;DHT22;3792;47.740;7.606;2022-12-11T11:22:17;10.60;97.80
7502;DHT22;3792;47.740;7.606;2022-12-11T11:24:52;10.80;93.80
7502;DHT22;3792;47.740;7.606;2022-12-11T11:27:27;11.10;93.90
7502;DHT22;3792;47.740;7.606;2022-12-11T11:29:57;11.40;93.30
7502;DHT22;3792;47.740;7.606;2022-12-11T11:32:35;11.60;91.60
7502;DHT22;3792;47.740;7.606;2022-12-11T11:35:18;12.00;92.70
7502;DHT22;3792;47.740;7.606;2022-12-11T11:37:55;11.80;91.30
7502;DHT22;3792;47.740;7.606;2022-12-11T11:40:27;11.70;89.20
7502;DHT22;3792;47.740;7.606;2022-12-11T11:43:06;11.00;89.80
7502;DHT22;3792;47.740;7.606;2022-12-11T11:45:44;10.40;90.70
7502;DHT22;3792;47.740;7.606;2022-12-11T11:48:29;9.20;93.00
7502;DHT22;3792;47.740;7.606;2022-12-11T11:51:02;8.00;91.60
7502;DHT22;3792;47.740;7.606;2022-12-11T11:53:34;6.70;92.40
7502;DHT22;3792;47.740;7.606;2022-12-11T11:56:16;5.90;93.80
7502;DHT22;3792;47.740;7.606;2022-12-11T11:58:52;4.70;96.20
7502;DHT22;3792;47.740;7.606;2022-12-11T12:01:22;4.40;97.10
7502;DHT22;3792;47.740;7.606;2022-12-11T12:03:52;4.20;97.90
7502;DHT22;3792;47.740;7.606;2022-12-11T12:06:33;4.40;98.80
7502;DHT22;3792;47.740;7.606;2022-12-11T12:09:14;4.40;97.90
7502;DHT22;3792;47.740;7.606;2022-12-11T12:11:48;3.90;98.10
7502;DHT22;3792;47.740;7.606;2022-12-11T12:14:20;3.40;99.20
7502;DHT22;3792;47.740;7.606;2022-12-11T12:16:58;3.20;99.90
7502;DHT22;3792;47.740;7.606;2022-12-11T12:19:48;3.00;99.90
7502;DHT22;3792;47.740;7.606;2022-12-11T12:22:35;3.10;99.90
7502;DHT22;3792;47.740;7.606;2022-12-11T12:25:15;4.00;99.90
7502;DHT22;3792;47.740;7.606;2022-12-11T12:27:49;5.50;99.90
7502;DHT22;3792;47.740;7.606;2022-12-11T12:30:20;7.00;99.90
7502;DHT22;3792;47.740;7.606;2022-12-11T12:33:03;8.20;99.90
7502;DHT22;3792;47.740;7.606;2022-12-11T12:35:35;8.70;95.60
7502;DHT22;3792;47.740;7.606;2022-12-11T12:38:13;8.30;95.80
7502;DHT22;3792;47.740;7.606;2022-12-11T12:40:49;7.70;95.60
7502;DHT22;3792;47.740;7.606;2022-12-11T12:43:36;7.00;96.10
7502;DHT22;3792;47.740;7.606;2022-12-11T12:46:13;6.30;96.50
7502;DHT22;3792;47.740;7.606;2022-12-11T12:48:45;6.20;97.50
7502;DHT22;3792;47.740;7.606;2022-12-11T12:51:15;6.50;97.80
7502;DHT22;3792;47.740;7.606;2022-12-11T12:53:46;7.30;97.80
7502;DHT22;3792;47.740;7.606;2022-12-11T12:56:15;7.80;95.80
7502;DHT22;3792;47.740;7.606;2022-12-11T12:58:44;8.00;94.50
7502;DHT22;3792;47.740;7.606;2022-12-11T13:01:16;7.80;94.20
7502;DHT22;3792;47.740;7.606;2022-12-11T13:03:54;7.90;95.10
7502;DHT22;3792;47.740;7.606;2022-12-11T13:06:32;8.10;96.10
7502;DHT22;3792;47.740;7.606;2022-12-11T13:09:12;9.00;99.00
7502;DHT22;3792;47.740;7.606;2022-12-11T13:11:41;9.90;98.80
7502;DHT22;3792;47.740;7.606;2022-12-11T13:14:24;10.70;94.50
7502;DHT22;3792;47.740;7.606;2022-12-11T13:17:06;10.30;92.40
7502;DHT22;3792;47.740;7.606;2022-12-11T13:19:34;10.20;95.20
7502;DHT22;3792;47.740;7.606;2022-12-11T13:22:19;10.20;92.60
7502;DHT22;3792;47.740;7.606;2022-12-11T13:24:48;9.90;92.90
7502;DHT22;3792;47.740;7.606;2022-12-11T13:27:23;9.80;92.90
7502;DHT22;3792;47.740;7.606;2022-12-11T13:29:50;9.50;93.00
7502;DHT22;3792;47.740;7.606;2022-12-11T13:32:22;9.40;92.80
7502;DHT22;3792;47.740;7.606;2022-12-11T13:34:52;9.40;94.40
7502;DHT22;3792;47.740;7.606;2022-12-11T13:37:25;9.20;92.90
7502;DHT22;3792;47.740;7.606;2022-12-11T13:39:53;8.90;93.50
7502;DHT22;3792;47.740;7.606;2022-12-11T13:42:25;8.80;93.60
7502;DHT22;3792;47.740;7.606;2022-12-11T13:44:54;9.60;99.90
7502;DHT22;3792;47.740;7.606;2022-12-11T13:47:21;10.60;99.30
7502;DHT22;3792;47.740;7.606;2022-12-11T13:49:54;11.60;98.80
7502;DHT22;3792;47.740;7.606;2022-12-11T13:52:24;12.40;97.80
7502;DHT22;3792;47.740;7.606;2022-12-11T13:54:54;13.20;96.80
7502;DHT22;3792;47.740;7.606;2022-12-11T13:57:25;13.70;94.90
7502;DHT22;3792;47.740;7.606;2022-12-11T13:59:54;14.00;94.20
7502;DHT22;3792;47.740;7.606;2022-12-11T14:02:24;14.30;94.30
7502;DHT22;3792;47.740;7.606;2022-12-11T14:04:54;14.60;93.80
7502;DHT22;3792;47.740;7.606;2022-12-11T14:07:26;14.70;93.20
7502;DHT22;3792;47.740;7.606;2022-12-11T14:09:59;14.80;92.80
7502;DHT22;3792;47.740;7.606;2022-12-11T14:12:27;14.40;90.90
7502;DHT22;3792;47.740;7.606;2022-12-11T14:14:59;14.30;91.80
7502;DHT22;3792;47.740;7.606;2022-12-11T14:17:28;13.30;80.10
7502;DHT22;3792;47.740;7.606;2022-12-11T14:19:58;12.00;82.50
7502;DHT22;3792;47.740;7.606;2022-12-11T14:22:29;10.70;84.30
7502;DHT22;3792;47.740;7.606;2022-12-11T14:24:58;9.50;87.60
7502;DHT22;3792;47.740;7.606;2022-12-11T14:27:27;8.50;89.60
7502;DHT22;3792;47.740;7.606;2022-12-11T14:29:55;7.70;91.20
7502;DHT22;3792;47.740;7.606;2022-12-11T14:32:29;6.70;92.10
7502;DHT22;3792;47.740;7.606;2022-12-11T14:34:57;6.00;92.80
7502;DHT22;3792;47.740;7.606;2022-12-11T14:37:27;5.20;93.80
7502;DHT22;3792;47.740;7.606;2022-12-11T14:39:58;4.40;95.50
7502;DHT22;3792;47.740;7.606;2022-12-11T14:42:28;3.30;97.60
7502;DHT22;3792;47.740;7.606;2022-12-11T14:45:02;2.70;98.80
7502;DHT22;3792;47.740;7.606;2022-12-11T14:47:33;2.00;99.90
7502;DHT22;3792;47.740;7.606;2022-12-11T14:50:05;1.60;99.90
7502;DHT22;3792;47.740;7.606;2022-12-11T14:52:39;1.40;99.90
7502;DHT22;3792;47.740;7.606;2022-12-11T14:55:12;1.20;99.90
7502;DHT22;3792;47.740;7.606;2022-12-11T14:57:43;0.90;99.90
7502;DHT22;3792;47.740;7.606;2022-12-11T15:00:23;0.70;99.90
7502;DHT22;3792;47.740;7.606;2022-12-11T15:02:59;0.60;99.90
7502;DHT22;3792;47.740;7.606;2022-12-11T15:05:27;0.40;99.90
7502;DHT22;3792;47.740;7.606;2022-12-11T15:08:00;0.30;99.90
7502;DHT22;3792;47.740;7.606;2022-12-11T15:10:31;0.00;99.90
7502;DHT22;3792;47.740;7.606;2022-12-11T15:13:00;-0.10;99.90
7502;DHT22;3792;47.740;7.606;2022-12-11T15:15:29;-0.30;99.90
7502;DHT22;3792;47.740;7.606;2022-12-11T15:18:11;-0.40;99.90
7502;DHT22;3792;47.740;7.606;2022-12-11T15:20:40;-0.60;99.90
7502;DHT22;3792;47.740;7.606;2022-12-11T15:23:09;-0.70;99.90
7502;DHT22;3792;47.740;7.606;2022-12-11T15:25:37;-0.80;99.90
7502;DHT22;3792;47.740;7.606;2022-12-11T15:28:04;-0.80;99.90
7502;DHT22;3792;47.740;7.606;2022-12-11T15:30:33;-0.70;99.90
7502;DHT22;3792;47.740;7.606;2022-12-11T15:33:03;-0.70;99.90
7502;DHT22;3792;47.740;7.606;2022-12-11T15:35:30;-0.80;99.90
7502;DHT22;3792;47.740;7.606;2022-12-11T15:37:58;-1.00;99.90
7502;DHT22;3792;47.740;7.606;2022-12-11T15:40:27;-1.20;99.90
7502;DHT22;3792;47.740;7.606;2022-12-11T15:42:54;-1.40;99.90
7502;DHT22;3792;47.740;7.606;2022-12-11T15:45:24;-1.30;99.90
7502;DHT22;3792;47.740;7.606;2022-12-11T15:47:53;-1.20;99.90
7502;DHT22;3792;47.740;7.606;2022-12-11T15:50:22;-1.10;99.90
7502;DHT22;3792;47.740;7.606;2022-12-11T15:52:51;-1.20;99.90
7502;DHT22;3792;47.740;7.606;2022-12-11T15:55:19;-1.30;99.90
7502;DHT22;3792;47.740;7.606;2022-12-11T15:57:52;-1.40;99.90
7502;DHT22;3792;47.740;7.606;2022-12-11T16:00:20;-1.40;99.90
7502;DHT22;3792;47.740;7.606;2022-12-11T16:02:48;-1.60;99.90
7502;DHT22;3792;47.740;7.606;2022-12-11T16:05:16;-1.70;99.90
7502;DHT22;3792;47.740;7.606;2022-12-11T16:07:43;-1.80;99.90
7502;DHT22;3792;47.740;7.606;2022-12-11T16:10:15;-1.90;99.90
7502;DHT22;3792;47.740;7.606;2022-12-11T16:12:43;-1.50;99.90
7502;DHT22;3792;47.740;7.606;2022-12-11T16:15:13;-1.40;99.90
7502;DHT22;3792;47.740;7.606;2022-12-11T16:17:40;-1.60;99.90
7502;DHT22;3792;47.740;7.606;2022-12-11T16:20:09;-1.70;99.90
7502;DHT22;3792;47.740;7.606;2022-12-11T16:22:38;-1.80;99.90
7502;DHT22;3792;47.740;7.606;2022-12-11T16:25:05;-2.00;99.90